createdAt,value
2023-03-17T00:01:55.055Z,74.00
2023-03-17T00:04:24.280Z,74.20
2023-03-17T00:06:52.790Z,74.00
2023-03-17T00:09:20.657Z,74.00
2023-03-17T00:11:48.277Z,74.50
2023-03-17T00:14:15.140Z,74.40
2023-03-17T00:16:49.611Z,74.70
2023-03-17T00:19:31.029Z,74.50
2023-03-17T00:21:59.085Z,74.90
2023-03-17T00:24:26.304Z,74.90
2023-03-17T00:26:53.380Z,75.10
2023-03-17T00:29:20.502Z,75.50
2023-03-17T00:31:47.327Z,75.80
2023-03-17T00:34:18.544Z,76.00
2023-03-17T00:36:50.828Z,76.40
2023-03-17T00:39:18.747Z,76.50
2023-03-17T00:44:12.794Z,77.00
2023-03-17T00:46:41.529Z,77.30
2023-03-17T00:51:44.749Z,77.90
2023-03-17T00:54:12.957Z,78.10
2023-03-17T00:56:41.664Z,78.50
2023-03-17T00:59:38.834Z,78.60
2023-03-17T01:02:05.702Z,78.80
2023-03-17T01:04:33.891Z,78.90
2023-03-17T01:07:00.787Z,78.80
2023-03-17T01:09:28.450Z,79.10
2023-03-17T01:11:55.957Z,79.10
2023-03-17T01:14:23.159Z,79.20
2023-03-17T01:16:50.551Z,79.40
2023-03-17T01:19:17.964Z,79.40
2023-03-17T01:21:45.825Z,79.40
2023-03-17T01:24:12.866Z,79.50
2023-03-17T01:26:40.507Z,79.70
2023-03-17T01:29:07.988Z,79.90
2023-03-17T01:31:35.423Z,80.00
2023-03-17T01:34:02.799Z,79.90
2023-03-17T01:36:29.628Z,79.80
2023-03-17T01:38:57.272Z,80.00
2023-03-17T01:41:25.047Z,79.80
2023-03-17T01:43:51.873Z,80.00
2023-03-17T01:46:32.658Z,80.20
2023-03-17T01:49:30.298Z,80.00
2023-03-17T01:52:03.007Z,80.20
2023-03-17T01:54:30.123Z,80.20
2023-03-17T01:57:13.052Z,80.40
2023-03-17T01:59:45.627Z,80.60
2023-03-17T02:02:14.765Z,80.50
2023-03-17T02:04:41.891Z,80.50
2023-03-17T02:07:10.202Z,80.60
2023-03-17T02:09:37.307Z,80.70
2023-03-17T02:12:05.331Z,80.70
2023-03-17T02:14:32.150Z,80.90
2023-03-17T02:16:59.102Z,81.20
2023-03-17T02:19:26.951Z,81.10
2023-03-17T02:21:56.882Z,81.30
2023-03-17T02:24:43.387Z,81.40
2023-03-17T02:27:18.646Z,81.30
2023-03-17T02:29:46.447Z,81.50
2023-03-17T02:32:18.226Z,81.60
2023-03-17T02:34:47.058Z,81.60
2023-03-17T02:37:14.465Z,81.60
2023-03-17T02:39:41.544Z,81.80
2023-03-17T02:42:08.993Z,81.80
2023-03-17T02:44:35.971Z,81.80
2023-03-17T02:47:03.462Z,81.70
2023-03-17T02:49:31.903Z,81.70
2023-03-17T02:51:58.956Z,81.60
2023-03-17T02:54:26.589Z,81.50
2023-03-17T02:56:53.504Z,81.60
2023-03-17T02:59:20.315Z,81.70
2023-03-17T03:01:48.621Z,81.70
2023-03-17T03:04:15.567Z,81.80
2023-03-17T03:06:44.634Z,81.80
2023-03-17T03:09:12.219Z,81.90
2023-03-17T03:11:39.684Z,82.00
2023-03-17T03:14:08.239Z,82.10
2023-03-17T03:16:35.054Z,82.10
2023-03-17T03:19:02.248Z,82.30
2023-03-17T03:21:29.516Z,82.30
2023-03-17T03:23:56.350Z,82.40
2023-03-17T03:26:23.412Z,82.50
2023-03-17T03:28:50.677Z,82.50
2023-03-17T03:31:17.524Z,82.60
2023-03-17T03:33:44.710Z,82.70
2023-03-17T03:36:12.047Z,82.90
2023-03-17T03:38:39.138Z,83.10
2023-03-17T03:41:06.410Z,83.10
2023-03-17T03:43:33.412Z,83.30
2023-03-17T03:46:00.473Z,83.10
2023-03-17T03:48:27.372Z,83.10
2023-03-17T03:50:59.670Z,83.20
2023-03-17T03:53:27.043Z,83.20
2023-03-17T03:55:54.568Z,83.10
2023-03-17T03:58:21.971Z,83.20
2023-03-17T04:00:48.830Z,83.10
2023-03-17T04:03:16.046Z,83.10
2023-03-17T04:05:42.976Z,83.10
2023-03-17T04:08:11.124Z,83.10
2023-03-17T04:10:37.950Z,83.10
2023-03-17T04:13:04.762Z,83.10
2023-03-17T04:15:31.556Z,83.30
2023-03-17T04:17:58.412Z,83.30
2023-03-17T04:20:25.518Z,83.30
2023-03-17T04:22:52.452Z,83.50
2023-03-17T04:25:19.356Z,83.60
2023-03-17T04:27:46.137Z,83.50
2023-03-17T04:30:14.601Z,83.60
2023-03-17T04:32:41.877Z,83.60
2023-03-17T04:35:15.830Z,83.60
2023-03-17T04:37:42.912Z,83.60
2023-03-17T04:40:11.530Z,83.70
2023-03-17T04:42:38.986Z,83.70
2023-03-17T04:45:07.134Z,83.70
2023-03-17T04:47:34.160Z,83.70
2023-03-17T04:50:01.557Z,83.80
2023-03-17T04:52:28.566Z,83.80
2023-03-17T04:54:55.434Z,83.80
2023-03-17T04:57:22.729Z,83.90
2023-03-17T04:59:49.532Z,84.00
2023-03-17T05:02:16.361Z,83.90
2023-03-17T05:04:43.400Z,84.00
2023-03-17T05:07:10.253Z,83.90
2023-03-17T05:09:37.871Z,84.00
2023-03-17T05:12:04.981Z,84.10
2023-03-17T05:14:31.779Z,84.00
2023-03-17T05:16:58.550Z,83.90
2023-03-17T05:19:25.516Z,84.00
2023-03-17T05:21:52.394Z,83.90
2023-03-17T05:24:19.346Z,84.10
2023-03-17T05:26:46.457Z,84.10
2023-03-17T05:29:13.605Z,84.10
2023-03-17T05:31:40.513Z,84.20
2023-03-17T05:34:07.303Z,84.10
2023-03-17T05:36:34.280Z,84.20
2023-03-17T05:39:01.124Z,84.30
2023-03-17T05:41:28.437Z,84.30
2023-03-17T05:43:55.969Z,84.30
2023-03-17T05:46:22.795Z,84.40
2023-03-17T05:48:49.592Z,84.30
2023-03-17T05:51:16.737Z,84.40
2023-03-17T05:53:43.819Z,84.50
2023-03-17T05:56:10.709Z,84.70
2023-03-17T05:58:37.598Z,84.60
2023-03-17T06:01:04.646Z,84.80
2023-03-17T06:03:31.762Z,85.00
2023-03-17T06:05:58.614Z,84.90
2023-03-17T06:08:25.814Z,85.00
2023-03-17T06:10:52.731Z,84.90
2023-03-17T06:13:20.057Z,84.80
2023-03-17T06:15:48.505Z,84.70
2023-03-17T06:18:15.436Z,84.70
2023-03-17T06:20:42.274Z,84.80
2023-03-17T06:23:09.067Z,84.80
2023-03-17T06:25:37.081Z,84.80
2023-03-17T06:28:06.692Z,84.70
2023-03-17T06:30:35.155Z,84.60
2023-03-17T06:33:02.835Z,84.70
2023-03-17T06:35:31.646Z,84.80
2023-03-17T06:37:58.994Z,84.80
2023-03-17T06:40:25.916Z,84.60
2023-03-17T06:42:53.266Z,84.60
2023-03-17T06:45:20.255Z,84.60
2023-03-17T06:47:47.106Z,84.70
2023-03-17T06:50:14.125Z,84.60
2023-03-17T06:52:41.353Z,84.50
2023-03-17T06:55:08.954Z,84.60
2023-03-17T06:57:36.621Z,84.50
2023-03-17T07:00:06.660Z,84.30
2023-03-17T07:02:33.839Z,84.20
2023-03-17T07:05:01.145Z,84.00
2023-03-17T07:07:28.387Z,83.80
2023-03-17T07:09:55.258Z,83.50
2023-03-17T07:12:22.165Z,83.50
2023-03-17T07:14:49.024Z,83.50
2023-03-17T07:17:16.201Z,83.40
2023-03-17T07:19:43.637Z,83.30
2023-03-17T07:22:12.355Z,83.30
2023-03-17T07:24:39.783Z,83.20
2023-03-17T07:27:07.051Z,83.10
2023-03-17T07:29:34.664Z,82.90
2023-03-17T07:32:02.155Z,82.80
2023-03-17T07:34:29.418Z,82.60
2023-03-17T07:36:56.615Z,82.40
2023-03-17T07:39:23.497Z,82.20
2023-03-17T07:41:55.162Z,82.00
2023-03-17T07:44:23.325Z,81.70
2023-03-17T07:46:51.617Z,81.80
2023-03-17T07:49:25.172Z,81.30
2023-03-17T07:52:01.123Z,81.30
2023-03-17T07:54:29.235Z,81.00
2023-03-17T07:56:56.914Z,80.90
2023-03-17T07:59:24.466Z,80.90
2023-03-17T08:01:51.795Z,80.80
2023-03-17T08:04:19.171Z,80.70
2023-03-17T08:06:46.964Z,80.80
2023-03-17T08:09:15.047Z,80.80
2023-03-17T08:11:42.125Z,80.70
2023-03-17T08:14:10.066Z,80.40
2023-03-17T08:16:37.149Z,80.30
2023-03-17T08:19:04.692Z,80.40
2023-03-17T08:21:32.083Z,80.10
2023-03-17T08:23:59.184Z,80.10
2023-03-17T08:26:27.229Z,79.90
2023-03-17T08:28:54.522Z,79.70
2023-03-17T08:31:22.989Z,79.30
2023-03-17T08:33:54.374Z,79.00
2023-03-17T08:36:21.972Z,79.10
2023-03-17T08:38:48.881Z,79.20
2023-03-17T08:41:18.510Z,78.70
2023-03-17T08:43:46.719Z,78.80
2023-03-17T08:46:27.506Z,78.60
2023-03-17T08:48:56.447Z,78.60
2023-03-17T08:51:26.833Z,78.80
2023-03-17T08:53:55.197Z,79.30
2023-03-17T08:56:23.347Z,78.90
2023-03-17T08:58:51.003Z,78.90
2023-03-17T09:01:19.163Z,78.30
2023-03-17T09:03:46.866Z,77.20
2023-03-17T09:06:14.291Z,77.10
2023-03-17T09:08:47.821Z,76.90
2023-03-17T09:11:17.795Z,75.20
2023-03-17T09:13:46.647Z,75.20
2023-03-17T09:16:18.177Z,74.80
2023-03-17T09:18:46.484Z,74.50
2023-03-17T09:21:14.567Z,73.40
2023-03-17T09:23:42.437Z,72.30
2023-03-17T09:26:10.232Z,72.20
2023-03-17T09:28:37.445Z,71.90
2023-03-17T09:31:07.773Z,70.90
2023-03-17T09:33:34.682Z,70.40
2023-03-17T09:36:01.574Z,71.30
2023-03-17T09:38:28.615Z,71.30
2023-03-17T09:41:20.644Z,71.90
2023-03-17T09:44:26.587Z,71.00
2023-03-17T09:47:19.468Z,69.50
2023-03-17T09:49:56.020Z,68.80
2023-03-17T09:52:32.043Z,68.60
2023-03-17T09:55:00.123Z,68.10
2023-03-17T09:57:35.023Z,67.40
2023-03-17T10:00:14.713Z,67.60
2023-03-17T10:02:43.213Z,67.40
2023-03-17T10:05:20.704Z,67.80
2023-03-17T10:08:28.975Z,67.30
2023-03-17T10:11:27.022Z,67.50
2023-03-17T10:14:33.694Z,67.40
2023-03-17T10:17:22.569Z,67.80
2023-03-17T10:20:24.689Z,67.40
2023-03-17T10:23:07.114Z,67.20
2023-03-17T10:25:36.469Z,68.00
2023-03-17T10:28:18.498Z,66.60
2023-03-17T10:30:45.799Z,67.20
2023-03-17T10:33:13.058Z,66.70
2023-03-17T10:35:40.595Z,65.80
2023-03-17T10:38:22.567Z,65.50
2023-03-17T10:40:59.527Z,64.90
2023-03-17T10:43:41.710Z,64.80
2023-03-17T10:46:25.761Z,64.50
2023-03-17T10:49:16.383Z,64.80
2023-03-17T10:51:46.473Z,65.10
2023-03-17T10:54:18.344Z,64.50
2023-03-17T10:56:49.121Z,64.90
2023-03-17T10:59:44.503Z,64.40
2023-03-17T11:02:26.139Z,64.00
2023-03-17T11:05:03.142Z,63.90
2023-03-17T11:07:38.734Z,64.20
2023-03-17T11:10:23.678Z,63.90
2023-03-17T11:12:58.960Z,63.70
2023-03-17T11:15:33.850Z,63.70
2023-03-17T11:18:03.538Z,63.60
2023-03-17T11:20:39.098Z,63.50
2023-03-17T11:23:41.825Z,64.00
2023-03-17T11:26:59.869Z,63.60
2023-03-17T11:29:38.690Z,64.10
2023-03-17T11:32:15.306Z,64.20
2023-03-17T11:35:14.643Z,63.40
2023-03-17T11:38:04.193Z,63.70
2023-03-17T11:40:35.361Z,64.30
2023-03-17T11:43:19.048Z,63.90
2023-03-17T11:45:51.913Z,63.90
2023-03-17T11:48:22.318Z,63.60
2023-03-17T11:51:21.776Z,63.10
2023-03-17T11:54:36.804Z,63.20
2023-03-17T11:57:08.993Z,63.60
2023-03-17T11:59:54.475Z,63.50
2023-03-17T12:02:27.237Z,63.20
2023-03-17T12:05:09.779Z,62.90
2023-03-17T12:07:39.106Z,63.10
2023-03-17T12:10:08.753Z,63.10
2023-03-17T12:12:42.760Z,62.90
2023-03-17T12:15:22.333Z,62.50
2023-03-17T12:18:04.287Z,62.90
2023-03-17T12:20:44.879Z,63.10
2023-03-17T12:23:33.754Z,62.50
2023-03-17T12:26:12.793Z,62.30
2023-03-17T12:28:56.198Z,62.80
2023-03-17T12:31:29.460Z,62.20
2023-03-17T12:34:20.894Z,62.50
2023-03-17T12:36:49.210Z,62.90
2023-03-17T12:39:32.369Z,62.40
2023-03-17T12:42:08.875Z,62.40
2023-03-17T12:44:57.638Z,63.10
2023-03-17T12:48:03.606Z,62.90
2023-03-17T12:50:54.797Z,63.00
2023-03-17T12:53:29.643Z,63.00
2023-03-17T12:56:10.925Z,63.10
2023-03-17T12:58:40.677Z,63.40
2023-03-17T13:01:17.450Z,63.00
2023-03-17T13:04:02.438Z,62.60
2023-03-17T13:06:43.107Z,62.80
2023-03-17T13:09:33.489Z,62.80
2023-03-17T13:12:01.945Z,63.30
2023-03-17T13:14:47.526Z,63.10
2023-03-17T13:17:20.018Z,63.10
2023-03-17T13:20:08.033Z,63.50
2023-03-17T13:22:38.862Z,62.90
2023-03-17T13:25:27.433Z,62.80
2023-03-17T13:27:54.294Z,63.00
2023-03-17T13:30:26.921Z,62.60
2023-03-17T13:33:19.954Z,63.10
2023-03-17T13:35:59.167Z,63.40
2023-03-17T13:38:35.395Z,63.50
2023-03-17T13:41:20.508Z,63.20
2023-03-17T13:44:06.681Z,63.30
2023-03-17T13:46:36.380Z,63.00
2023-03-17T13:49:21.382Z,63.30
2023-03-17T13:52:00.408Z,62.70
2023-03-17T13:54:30.440Z,63.10
2023-03-17T13:57:17.221Z,62.60
2023-03-17T14:00:02.958Z,62.60
2023-03-17T14:02:32.952Z,62.50
2023-03-17T14:05:03.153Z,62.90
2023-03-17T14:07:47.968Z,62.50
2023-03-17T14:10:21.657Z,62.50
2023-03-17T14:13:13.548Z,62.80
2023-03-17T14:16:03.937Z,62.30
2023-03-17T14:18:39.889Z,63.00
2023-03-17T14:21:18.896Z,62.90
2023-03-17T14:23:53.996Z,63.10
2023-03-17T14:26:23.660Z,63.00
2023-03-17T14:28:50.462Z,62.70
2023-03-17T14:31:24.402Z,62.70
2023-03-17T14:33:59.730Z,63.00
2023-03-17T14:36:28.622Z,62.90
2023-03-17T14:38:56.789Z,63.00
2023-03-17T14:41:27.132Z,63.40
2023-03-17T14:43:58.327Z,63.30
2023-03-17T14:46:31.392Z,63.20
2023-03-17T14:49:01.908Z,63.70
2023-03-17T14:51:33.912Z,63.30
2023-03-17T14:54:12.700Z,63.50
2023-03-17T14:56:43.512Z,64.00
2023-03-17T14:59:36.261Z,63.80
2023-03-17T15:02:15.786Z,64.00
2023-03-17T15:04:58.076Z,63.90
2023-03-17T15:07:42.866Z,63.60
2023-03-17T15:10:39.759Z,63.50
2023-03-17T15:13:07.140Z,64.10
2023-03-17T15:15:37.166Z,63.80
2023-03-17T15:18:11.392Z,63.90
2023-03-17T15:20:38.890Z,63.80
2023-03-17T15:23:18.404Z,64.20
2023-03-17T15:25:55.582Z,64.20
2023-03-17T15:28:28.875Z,64.20
2023-03-17T15:31:05.848Z,64.20
2023-03-17T15:33:39.147Z,64.20
2023-03-17T15:36:07.701Z,64.20
2023-03-17T15:38:36.778Z,64.40
2023-03-17T15:41:03.566Z,64.80
2023-03-17T15:43:30.389Z,64.70
2023-03-17T15:46:06.997Z,64.80
2023-03-17T15:48:38.964Z,64.90
2023-03-17T15:51:06.236Z,64.90
2023-03-17T15:53:33.024Z,65.60
2023-03-17T15:55:59.882Z,65.30
2023-03-17T15:58:26.851Z,65.50
2023-03-17T16:00:57.442Z,65.50
2023-03-17T16:03:35.319Z,65.40
2023-03-17T16:06:04.235Z,65.40
2023-03-17T16:08:31.437Z,66.00
2023-03-17T16:10:58.321Z,66.00
2023-03-17T16:13:25.357Z,66.00
2023-03-17T16:16:00.999Z,66.00
2023-03-17T16:18:37.673Z,66.10
2023-03-17T16:21:05.408Z,66.00
2023-03-17T16:23:36.515Z,65.60
2023-03-17T16:26:14.200Z,65.80
2023-03-17T16:28:44.666Z,65.80
2023-03-17T16:31:30.610Z,66.10
2023-03-17T16:33:57.618Z,66.00
2023-03-17T16:36:26.035Z,65.70
2023-03-17T16:38:53.088Z,66.30
2023-03-17T16:41:22.880Z,66.70
2023-03-17T16:43:57.541Z,66.70
2023-03-17T16:46:27.096Z,66.40
2023-03-17T16:48:53.987Z,66.70
2023-03-17T16:51:20.845Z,66.30
2023-03-17T16:53:47.755Z,66.50
2023-03-17T16:56:21.437Z,66.80
2023-03-17T16:58:49.349Z,66.70
2023-03-17T17:01:27.886Z,66.90
2023-03-17T17:03:55.656Z,67.30
2023-03-17T17:06:24.056Z,67.30
2023-03-17T17:08:51.867Z,67.60
2023-03-17T17:11:20.025Z,68.00
2023-03-17T17:13:48.913Z,68.40
2023-03-17T17:16:22.534Z,68.80
2023-03-17T17:18:49.721Z,69.00
2023-03-17T17:21:16.795Z,69.40
2023-03-17T17:23:43.693Z,69.30
2023-03-17T17:26:10.808Z,69.20
2023-03-17T17:28:39.966Z,69.10
2023-03-17T17:31:10.885Z,68.80
2023-03-17T17:33:38.177Z,68.60
2023-03-17T17:36:08.117Z,69.00
2023-03-17T17:38:35.063Z,69.00
2023-03-17T17:41:03.353Z,69.60
2023-03-17T17:43:30.553Z,70.30
2023-03-17T17:45:58.161Z,70.50
2023-03-17T17:48:27.547Z,70.90
2023-03-17T17:50:56.187Z,71.50
2023-03-17T17:53:23.502Z,72.10
2023-03-17T17:55:51.298Z,72.30
2023-03-17T17:58:22.277Z,72.70
2023-03-17T18:00:49.945Z,73.20
2023-03-17T18:03:17.250Z,73.60
2023-03-17T18:05:44.393Z,74.30
2023-03-17T18:08:14.760Z,75.10
2023-03-17T18:10:42.113Z,75.20
2023-03-17T18:13:09.626Z,75.40
2023-03-17T18:15:36.435Z,76.00
2023-03-17T18:18:03.217Z,75.90
2023-03-17T18:20:31.345Z,76.00
2023-03-17T18:22:58.310Z,76.00
2023-03-17T18:25:27.261Z,76.70
2023-03-17T18:27:54.896Z,77.80
2023-03-17T18:30:27.841Z,78.60
2023-03-17T18:32:58.134Z,78.50
2023-03-17T18:35:27.138Z,77.70
2023-03-17T18:37:55.371Z,77.00
2023-03-17T18:40:22.198Z,77.20
2023-03-17T18:42:49.086Z,76.20
2023-03-17T18:45:16.576Z,76.10
2023-03-17T18:47:43.543Z,76.30
2023-03-17T18:50:12.623Z,76.00
2023-03-17T18:52:41.485Z,75.60
2023-03-17T18:55:11.204Z,76.00
2023-03-17T18:57:38.727Z,75.80
2023-03-17T19:00:08.608Z,75.30
2023-03-17T19:02:37.222Z,75.40
2023-03-17T19:05:04.972Z,75.40
2023-03-17T19:07:32.062Z,75.50
2023-03-17T19:09:59.372Z,75.60
2023-03-17T19:12:26.728Z,75.20
2023-03-17T19:14:53.605Z,75.30
2023-03-17T19:17:20.389Z,75.40
2023-03-17T19:19:47.214Z,76.10
2023-03-17T19:22:14.176Z,76.20
2023-03-17T19:24:41.220Z,76.30
2023-03-17T19:27:08.255Z,76.50
2023-03-17T19:29:35.021Z,76.80
2023-03-17T19:32:02.395Z,77.20
2023-03-17T19:34:29.224Z,76.50
2023-03-17T19:36:56.111Z,76.30
2023-03-17T19:39:23.085Z,76.30
2023-03-17T19:41:53.239Z,76.10
2023-03-17T19:44:20.079Z,76.20
2023-03-17T19:46:47.223Z,75.90
2023-03-17T19:49:14.249Z,76.10
2023-03-17T19:51:43.928Z,75.30
2023-03-17T19:54:11.244Z,75.10
2023-03-17T19:56:38.792Z,75.50
2023-03-17T19:59:06.784Z,75.90
2023-03-17T20:01:33.887Z,75.50
2023-03-17T20:04:01.188Z,75.20
2023-03-17T20:06:28.113Z,75.20
2023-03-17T20:08:54.984Z,75.10
2023-03-17T20:11:23.737Z,74.80
2023-03-17T20:13:50.827Z,75.00
2023-03-17T20:16:18.814Z,74.90
2023-03-17T20:18:45.915Z,75.00
2023-03-17T20:21:13.939Z,75.30
2023-03-17T20:23:41.045Z,75.50
2023-03-17T20:26:09.256Z,76.00
2023-03-17T20:28:36.555Z,75.90
2023-03-17T20:31:04.868Z,76.40
2023-03-17T20:33:33.621Z,76.30
2023-03-17T20:36:01.940Z,75.90
2023-03-17T20:38:29.243Z,75.60
2023-03-17T20:41:15.006Z,76.10
2023-03-17T20:43:42.228Z,76.20
2023-03-17T20:46:14.017Z,76.20
2023-03-17T20:48:41.459Z,76.10
2023-03-17T20:51:15.632Z,76.90
2023-03-17T20:53:47.564Z,76.90
2023-03-17T20:56:16.390Z,78.10
2023-03-17T20:58:45.402Z,79.30
2023-03-17T21:01:12.881Z,80.60
2023-03-17T21:03:44.469Z,82.20
2023-03-17T21:06:11.805Z,83.20
2023-03-17T21:08:39.732Z,83.50
2023-03-17T21:11:08.156Z,84.70
2023-03-17T21:13:35.312Z,85.40
2023-03-17T21:16:03.547Z,86.30
2023-03-17T21:18:30.518Z,86.80
2023-03-17T21:20:58.199Z,87.30
2023-03-17T21:23:25.348Z,87.40
2023-03-17T21:25:56.269Z,87.40
2023-03-17T21:28:23.687Z,87.60
2023-03-17T21:30:51.268Z,87.70
2023-03-17T21:33:18.561Z,88.30
2023-03-17T21:35:45.482Z,88.50
2023-03-17T21:38:12.390Z,88.70
2023-03-17T21:40:39.605Z,88.90
2023-03-17T21:43:06.598Z,88.40
2023-03-17T21:45:33.480Z,87.20
2023-03-17T21:48:00.724Z,86.90
2023-03-17T21:50:27.695Z,86.70
2023-03-17T21:52:55.124Z,86.70
2023-03-17T21:55:21.954Z,87.70
2023-03-17T21:57:49.309Z,87.80
2023-03-17T22:00:17.222Z,88.40
2023-03-17T22:02:44.016Z,89.00
2023-03-17T22:05:10.917Z,90.00
2023-03-17T22:07:38.733Z,89.80
2023-03-17T22:10:09.009Z,89.50
2023-03-17T22:12:36.505Z,89.40
2023-03-17T22:15:04.439Z,90.00
2023-03-17T22:17:32.712Z,90.10
2023-03-17T22:19:59.523Z,90.30
2023-03-17T22:22:26.819Z,90.50
2023-03-17T22:24:53.691Z,90.50
2023-03-17T22:27:20.924Z,90.70
2023-03-17T22:29:48.153Z,90.90
2023-03-17T22:32:15.060Z,90.90
2023-03-17T22:34:42.637Z,90.80
2023-03-17T22:37:09.713Z,90.70
2023-03-17T22:39:37.042Z,90.60
2023-03-17T22:42:04.062Z,90.60
2023-03-17T22:44:31.091Z,90.60
2023-03-17T22:46:58.084Z,90.60
2023-03-17T22:49:25.244Z,90.60
2023-03-17T22:51:52.129Z,90.50
2023-03-17T22:54:19.194Z,90.50
2023-03-17T22:56:46.190Z,90.70
2023-03-17T22:59:13.115Z,90.70
2023-03-17T23:01:40.235Z,90.50
2023-03-17T23:04:07.865Z,90.50
2023-03-17T23:06:35.987Z,90.50
2023-03-17T23:09:02.840Z,90.60
2023-03-17T23:11:29.858Z,90.40
2023-03-17T23:13:56.954Z,90.40
2023-03-17T23:16:24.534Z,90.40
2023-03-17T23:18:51.631Z,90.50
2023-03-17T23:21:30.977Z,90.60
2023-03-17T23:23:58.203Z,90.70
2023-03-17T23:26:25.912Z,90.80
2023-03-17T23:28:52.864Z,90.80
2023-03-17T23:31:20.585Z,90.90
2023-03-17T23:33:49.269Z,90.90
2023-03-17T23:36:17.679Z,90.90
2023-03-17T23:38:45.903Z,90.80
2023-03-17T23:41:14.674Z,90.80
2023-03-17T23:43:42.456Z,90.90
2023-03-17T23:46:09.611Z,90.80
2023-03-17T23:48:36.889Z,90.70
2023-03-17T23:51:04.064Z,90.40
2023-03-17T23:53:31.444Z,90.20
2023-03-17T23:55:59.117Z,90.10
2023-03-17T23:58:27.028Z,90.10
